createdAt,value
2023-03-26T00:01:16.324Z,99794.78
2023-03-26T00:05:20.119Z,99801.09
2023-03-26T00:09:24.615Z,99814.22
2023-03-26T00:13:27.753Z,99821.59
2023-03-26T00:17:31.158Z,99821.41
2023-03-26T00:21:34.291Z,99811.38
2023-03-26T00:25:42.384Z,99803.44
2023-03-26T00:29:45.566Z,99813.03
2023-03-26T00:33:49.078Z,99814.34
2023-03-26T00:37:53.791Z,99804.69
2023-03-26T00:41:58.574Z,99808.66
2023-03-26T00:46:02.319Z,99798.34
2023-03-26T00:50:06.527Z,99797.47
2023-03-26T00:54:11.922Z,99784.72
2023-03-26T00:58:17.765Z,99787.69
2023-03-26T01:02:21.433Z,99787.97
2023-03-26T01:06:28.138Z,99785.50
2023-03-26T01:10:38.740Z,99779.50
2023-03-26T01:14:43.404Z,99776.41
2023-03-26T01:18:46.849Z,99780.81
2023-03-26T01:22:53.696Z,99768.84
2023-03-26T01:27:33.700Z,99758.44
2023-03-26T01:31:43.034Z,99761.38
2023-03-26T01:35:52.713Z,99749.66
2023-03-26T01:40:06.978Z,99750.94
2023-03-26T01:44:17.910Z,99740.88
2023-03-26T01:48:21.421Z,99734.22
2023-03-26T01:52:26.298Z,99738.19
2023-03-26T01:56:36.759Z,99723.13
2023-03-26T02:00:47.058Z,99710.91
2023-03-26T02:04:55.892Z,99702.75
2023-03-26T02:09:03.491Z,99691.50
2023-03-26T02:13:06.985Z,99679.25
2023-03-26T02:17:12.580Z,99665.84
2023-03-26T02:21:20.513Z,99658.25
2023-03-26T02:25:24.142Z,99651.06
2023-03-26T02:29:27.961Z,99634.28
2023-03-26T02:33:33.214Z,99627.97
2023-03-26T02:37:37.201Z,99621.84
2023-03-26T02:41:51.459Z,99620.16
2023-03-26T02:45:55.176Z,99614.50
2023-03-26T02:50:19.454Z,99601.72
2023-03-26T02:54:44.154Z,99589.75
2023-03-26T02:58:58.152Z,99578.84
2023-03-26T03:03:04.597Z,99586.03
2023-03-26T03:07:09.415Z,99585.84
2023-03-26T03:11:14.810Z,99590.31
2023-03-26T03:15:24.646Z,99590.75
2023-03-26T03:19:27.801Z,99589.47
2023-03-26T03:23:32.756Z,99585.91
2023-03-26T03:27:48.590Z,99585.50
2023-03-26T03:31:51.852Z,99586.34
2023-03-26T03:36:24.298Z,99592.00
2023-03-26T03:40:38.655Z,99578.66
2023-03-26T03:44:41.919Z,99582.69
2023-03-26T03:48:56.242Z,99581.63
2023-03-26T03:53:05.769Z,99578.28
2023-03-26T03:57:11.219Z,99573.69
2023-03-26T04:01:18.757Z,99568.06
2023-03-26T04:05:36.555Z,99560.75
2023-03-26T04:09:40.044Z,99554.09
2023-03-26T04:13:51.625Z,99540.16
2023-03-26T04:18:10.399Z,99531.97
2023-03-26T04:22:13.960Z,99523.44
2023-03-26T04:26:30.935Z,99521.97
2023-03-26T04:30:46.842Z,99523.84
2023-03-26T04:35:20.028Z,99522.41
2023-03-26T04:39:30.066Z,99516.09
2023-03-26T04:43:53.175Z,99506.94
2023-03-26T04:48:17.220Z,99508.16
2023-03-26T04:52:20.535Z,99500.00
2023-03-26T04:56:37.587Z,99482.56
2023-03-26T05:01:10.236Z,99477.53
2023-03-26T05:05:19.396Z,99470.00
2023-03-26T05:09:22.975Z,99459.72
2023-03-26T05:13:52.291Z,99458.22
2023-03-26T05:17:55.858Z,99446.91
2023-03-26T05:22:12.012Z,99444.00
2023-03-26T05:26:24.333Z,99429.09
2023-03-26T05:30:27.997Z,99419.69
2023-03-26T05:34:35.329Z,99425.06
2023-03-26T05:38:41.217Z,99404.56
2023-03-26T05:42:47.479Z,99387.00
2023-03-26T05:47:06.016Z,99386.13
2023-03-26T05:51:09.913Z,99379.00
2023-03-26T05:55:20.296Z,99375.66
2023-03-26T05:59:42.205Z,99366.91
2023-03-26T06:04:04.552Z,99372.78
2023-03-26T06:08:13.446Z,99366.94
2023-03-26T06:12:25.839Z,99362.78
2023-03-26T06:16:29.179Z,99359.00
2023-03-26T06:20:52.822Z,99356.28
2023-03-26T06:25:20.216Z,99350.22
2023-03-26T06:29:50.870Z,99344.53
2023-03-26T06:34:10.535Z,99340.56
2023-03-26T06:38:14.051Z,99343.91
2023-03-26T06:42:17.131Z,99344.94
2023-03-26T06:46:42.232Z,99350.38
2023-03-26T06:51:23.834Z,99338.81
2023-03-26T06:55:54.045Z,99341.09
2023-03-26T07:00:16.579Z,99342.09
2023-03-26T07:04:39.580Z,99333.72
2023-03-26T07:09:01.084Z,99323.63
2023-03-26T07:13:36.726Z,99322.00
2023-03-26T07:18:00.068Z,99312.91
2023-03-26T07:22:16.400Z,99308.50
2023-03-26T07:26:50.206Z,99311.22
2023-03-26T07:31:07.682Z,99302.47
2023-03-26T07:35:28.800Z,99298.38
2023-03-26T07:40:00.461Z,99300.94
2023-03-26T07:44:45.085Z,99284.56
2023-03-26T07:48:54.138Z,99284.16
2023-03-26T07:53:19.261Z,99279.72
2023-03-26T07:57:50.864Z,99283.72
2023-03-26T08:02:42.335Z,99274.13
2023-03-26T08:07:12.208Z,99267.81
2023-03-26T08:11:47.793Z,99266.75
2023-03-26T08:16:01.460Z,99267.78
2023-03-26T08:20:17.412Z,99270.94
2023-03-26T08:24:26.416Z,99269.03
2023-03-26T08:28:50.795Z,99256.88
2023-03-26T08:32:58.172Z,99263.59
2023-03-26T08:37:01.342Z,99261.25
2023-03-26T08:41:29.591Z,99254.38
2023-03-26T08:46:03.253Z,99247.25
2023-03-26T08:50:36.422Z,99252.69
2023-03-26T08:55:04.313Z,99251.47
2023-03-26T08:59:29.417Z,99246.56
2023-03-26T09:03:57.330Z,99241.03
2023-03-26T09:08:30.213Z,99237.69
2023-03-26T09:13:15.084Z,99231.47
2023-03-26T09:17:45.536Z,99220.00
2023-03-26T09:22:11.809Z,99226.03
2023-03-26T09:26:46.320Z,99213.84
2023-03-26T09:31:38.180Z,99202.16
2023-03-26T09:35:54.790Z,99196.28
2023-03-26T09:40:10.796Z,99192.50
2023-03-26T09:44:53.924Z,99186.50
2023-03-26T09:49:34.056Z,99189.78
2023-03-26T09:54:07.229Z,99174.66
2023-03-26T09:58:38.415Z,99171.69
2023-03-26T10:03:17.463Z,99170.69
2023-03-26T10:07:49.673Z,99170.53
2023-03-26T10:12:20.549Z,99167.03
2023-03-26T10:16:33.087Z,99169.28
2023-03-26T10:20:53.118Z,99168.88
2023-03-26T10:25:23.284Z,99159.94
2023-03-26T10:29:44.261Z,99161.13
2023-03-26T10:33:59.476Z,99157.94
2023-03-26T10:38:16.618Z,99154.59
2023-03-26T10:42:42.535Z,99155.72
2023-03-26T10:46:58.762Z,99147.19
2023-03-26T10:51:37.286Z,99134.50
2023-03-26T10:55:46.849Z,99146.41
2023-03-26T10:59:50.032Z,99132.06
2023-03-26T11:03:54.945Z,99130.25
2023-03-26T11:08:03.488Z,99128.16
2023-03-26T11:12:26.569Z,99131.38
2023-03-26T11:16:50.089Z,99128.28
2023-03-26T11:21:19.717Z,99131.31
2023-03-26T11:25:31.846Z,99117.47
2023-03-26T11:29:51.144Z,99123.06
2023-03-26T11:33:58.964Z,99125.06
2023-03-26T11:38:07.051Z,99125.34
2023-03-26T11:42:14.310Z,99127.50
2023-03-26T11:46:25.979Z,99124.09
2023-03-26T11:50:33.932Z,99126.72
2023-03-26T11:54:37.789Z,99122.34
2023-03-26T11:58:47.231Z,99126.72
2023-03-26T12:02:58.906Z,99133.56
2023-03-26T12:07:10.926Z,99130.19
2023-03-26T12:11:16.185Z,99139.00
2023-03-26T12:15:21.805Z,99134.91
2023-03-26T12:19:29.007Z,99137.38
2023-03-26T12:23:38.862Z,99139.47
2023-03-26T12:27:45.045Z,99140.94
2023-03-26T12:31:55.585Z,99143.94
2023-03-26T12:36:00.692Z,99148.69
2023-03-26T12:40:14.290Z,99157.94
2023-03-26T12:44:47.004Z,99157.38
2023-03-26T12:48:50.156Z,99159.66
2023-03-26T12:53:07.379Z,99158.06
2023-03-26T12:57:21.264Z,99166.59
2023-03-26T13:01:35.588Z,99165.03
2023-03-26T13:05:55.708Z,99173.97
2023-03-26T13:10:30.698Z,99175.97
2023-03-26T13:14:54.069Z,99165.38
2023-03-26T13:19:03.665Z,99175.19
2023-03-26T13:23:16.633Z,99171.50
2023-03-26T13:27:36.546Z,99175.69
2023-03-26T13:31:50.686Z,99170.00
2023-03-26T13:36:14.348Z,99166.06
2023-03-26T13:40:32.827Z,99170.56
2023-03-26T13:44:52.864Z,99173.28
2023-03-26T13:49:15.819Z,99162.75
2023-03-26T13:53:24.727Z,99165.72
2023-03-26T13:57:33.710Z,99161.91
2023-03-26T14:01:46.560Z,99161.09
2023-03-26T14:05:56.297Z,99164.06
2023-03-26T14:10:06.305Z,99166.97
2023-03-26T14:14:14.266Z,99159.09
2023-03-26T14:18:31.996Z,99159.44
2023-03-26T14:22:47.634Z,99162.66
2023-03-26T14:27:17.882Z,99168.22
2023-03-26T14:35:41.565Z,99172.09
2023-03-26T14:40:05.762Z,99181.28
2023-03-26T14:44:47.632Z,99187.19
2023-03-26T14:49:07.973Z,99185.75
2023-03-26T14:53:22.984Z,99182.78
2023-03-26T14:57:49.868Z,99185.16
2023-03-26T15:02:24.091Z,99192.06
2023-03-26T15:07:06.384Z,99202.63
2023-03-26T15:11:24.409Z,99203.94
2023-03-26T15:16:09.339Z,99214.00
2023-03-26T15:20:56.932Z,99228.31
2023-03-26T15:25:35.130Z,99251.06
2023-03-26T15:30:23.234Z,99281.72
2023-03-26T15:35:07.847Z,99294.63
2023-03-26T15:39:44.307Z,99319.47
2023-03-26T15:44:29.196Z,99335.91
2023-03-26T15:48:43.645Z,99352.41
2023-03-26T15:52:55.494Z,99363.34
2023-03-26T15:57:10.629Z,99373.50
2023-03-26T16:01:23.647Z,99380.53
2023-03-26T16:05:48.285Z,99395.91
2023-03-26T16:10:00.967Z,99402.41
2023-03-26T16:14:17.748Z,99409.88
2023-03-26T16:18:29.864Z,99411.53
2023-03-26T16:22:47.438Z,99422.09
2023-03-26T16:27:02.784Z,99433.38
2023-03-26T16:31:36.603Z,99439.63
2023-03-26T16:36:02.027Z,99457.47
2023-03-26T16:40:34.218Z,99455.19
2023-03-26T16:44:46.276Z,99470.13
2023-03-26T16:48:58.967Z,99481.47
2023-03-26T16:53:17.138Z,99494.09
2023-03-26T16:57:29.579Z,99502.53
2023-03-26T17:01:41.568Z,99512.13
2023-03-26T17:06:02.486Z,99519.91
2023-03-26T17:10:16.118Z,99526.66
2023-03-26T17:14:33.434Z,99546.31
2023-03-26T17:18:47.956Z,99550.34
2023-03-26T17:23:06.042Z,99559.56
2023-03-26T17:27:27.953Z,99568.56
2023-03-26T17:31:42.473Z,99577.22
2023-03-26T17:35:47.123Z,99582.66
2023-03-26T17:40:38.306Z,99594.59
2023-03-26T17:44:46.524Z,99599.00
2023-03-26T17:48:57.803Z,99599.03
2023-03-26T17:53:04.697Z,99599.88
2023-03-26T17:57:16.052Z,99594.25
2023-03-26T18:01:29.765Z,99601.59
2023-03-26T18:05:35.959Z,99589.88
2023-03-26T18:09:54.729Z,99599.50
2023-03-26T18:14:16.756Z,99601.19
2023-03-26T18:18:26.445Z,99608.72
2023-03-26T18:22:31.684Z,99614.59
2023-03-26T18:26:37.868Z,99630.50
2023-03-26T18:30:47.700Z,99633.84
2023-03-26T18:34:57.315Z,99644.75
2023-03-26T18:39:02.413Z,99641.81
2023-03-26T18:43:05.996Z,99650.81
2023-03-26T18:47:10.389Z,99651.47
2023-03-26T18:51:16.068Z,99666.94
2023-03-26T18:55:20.568Z,99669.44
2023-03-26T18:59:28.453Z,99676.38
2023-03-26T19:03:35.718Z,99681.19
2023-03-26T19:07:40.935Z,99701.88
2023-03-26T19:11:45.782Z,99698.75
2023-03-26T19:15:51.590Z,99717.78
2023-03-26T19:19:57.493Z,99722.59
2023-03-26T19:24:03.891Z,99731.81
2023-03-26T19:28:08.470Z,99741.84
2023-03-26T19:32:18.829Z,99740.56
2023-03-26T19:36:25.132Z,99758.56
2023-03-26T19:40:34.984Z,99761.91
2023-03-26T19:44:41.194Z,99771.06
2023-03-26T19:48:49.222Z,99767.72
2023-03-26T19:53:17.893Z,99789.69
2023-03-26T19:57:23.611Z,99778.19
2023-03-26T20:01:28.526Z,99796.97
2023-03-26T20:05:35.852Z,99803.22
2023-03-26T20:09:39.623Z,99815.38
2023-03-26T20:13:44.158Z,99825.38
2023-03-26T20:17:50.268Z,99836.00
2023-03-26T20:21:53.899Z,99832.03
2023-03-26T20:26:00.881Z,99839.53
2023-03-26T20:30:07.239Z,99854.97
2023-03-26T20:34:17.876Z,99858.88
2023-03-26T20:38:26.580Z,99869.31
2023-03-26T20:42:36.468Z,99879.56
2023-03-26T20:46:41.517Z,99883.06
2023-03-26T20:50:50.645Z,99891.19
2023-03-26T20:54:54.030Z,99900.78
2023-03-26T20:59:09.988Z,99916.66
2023-03-26T21:03:17.763Z,99914.06
2023-03-26T21:07:21.065Z,99930.75
2023-03-26T21:11:46.976Z,99937.59
2023-03-26T21:15:50.889Z,99940.50
2023-03-26T21:19:56.361Z,99954.03
2023-03-26T21:24:08.655Z,99961.06
2023-03-26T21:28:28.929Z,99967.53
2023-03-26T21:32:40.121Z,99975.22
2023-03-26T21:36:46.781Z,99980.59
2023-03-26T21:40:58.428Z,99999.13
2023-03-26T21:45:03.597Z,100016.56
2023-03-26T21:49:07.516Z,100020.91
2023-03-26T21:53:16.000Z,100026.19
2023-03-26T21:57:35.095Z,100036.53
2023-03-26T22:01:46.514Z,100047.00
2023-03-26T22:05:56.110Z,100061.94
2023-03-26T22:10:00.893Z,100073.00
2023-03-26T22:14:05.050Z,100079.53
2023-03-26T22:18:08.295Z,100091.94
2023-03-26T22:22:12.589Z,100102.69
2023-03-26T22:26:19.802Z,100103.28
2023-03-26T22:30:23.033Z,100119.28
2023-03-26T22:34:26.405Z,100135.59
2023-03-26T22:38:29.722Z,100142.56
2023-03-26T22:42:34.487Z,100152.50
2023-03-26T22:46:37.897Z,100156.41
2023-03-26T22:50:41.239Z,100175.41
2023-03-26T22:54:44.447Z,100173.34
2023-03-26T22:58:49.150Z,100177.19
2023-03-26T23:02:53.258Z,100185.63
2023-03-26T23:06:56.703Z,100202.56
2023-03-26T23:11:00.013Z,100215.78
2023-03-26T23:15:05.912Z,100212.75
2023-03-26T23:19:09.638Z,100234.50
2023-03-26T23:23:13.132Z,100247.69
2023-03-26T23:27:16.515Z,100264.97
2023-03-26T23:31:27.647Z,100268.69
2023-03-26T23:35:31.025Z,100270.41
2023-03-26T23:39:34.675Z,100283.56
2023-03-26T23:43:39.738Z,100296.06
2023-03-26T23:47:59.848Z,100301.50
2023-03-26T23:52:04.420Z,100310.28
2023-03-26T23:56:08.413Z,100332.59
